sensor_id;sensor_type;location;lat;lon;timestamp;P1;durP1;ratioP1;P2;durP2;ratioP2
20966;SDS011;10642;50.682;18.510;2022-08-07T00:01:20;7.63;;;4.60;;
20966;SDS011;10642;50.682;18.510;2022-08-07T00:04:07;5.57;;;4.10;;
20966;SDS011;10642;50.682;18.510;2022-08-07T00:06:41;19.23;;;8.47;;
20966;SDS011;10642;50.682;18.510;2022-08-07T00:09:20;9.57;;;4.47;;
20966;SDS011;10642;50.682;18.510;2022-08-07T00:11:54;10.03;;;4.00;;
20966;SDS011;10642;50.682;18.510;2022-08-07T00:14:25;7.10;;;3.77;;
20966;SDS011;10642;50.682;18.510;2022-08-07T00:16:57;7.40;;;3.13;;
20966;SDS011;10642;50.682;18.510;2022-08-07T00:19:24;4.43;;;3.33;;
20966;SDS011;10642;50.682;18.510;2022-08-07T00:22:14;5.10;;;3.20;;
20966;SDS011;10642;50.682;18.510;2022-08-07T00:25:02;5.17;;;3.67;;
20966;SDS011;10642;50.682;18.510;2022-08-07T00:27:30;7.07;;;3.50;;
20966;SDS011;10642;50.682;18.510;2022-08-07T00:30:17;5.40;;;3.77;;
20966;SDS011;10642;50.682;18.510;2022-08-07T00:32:52;6.37;;;3.70;;
20966;SDS011;10642;50.682;18.510;2022-08-07T00:35:20;5.57;;;3.83;;
20966;SDS011;10642;50.682;18.510;2022-08-07T00:37:48;9.47;;;4.10;;
20966;SDS011;10642;50.682;18.510;2022-08-07T00:40:16;5.67;;;3.70;;
20966;SDS011;10642;50.682;18.510;2022-08-07T00:43:03;6.87;;;3.43;;
20966;SDS011;10642;50.682;18.510;2022-08-07T00:45:50;7.97;;;4.37;;
20966;SDS011;10642;50.682;18.510;2022-08-07T00:48:18;7.53;;;4.03;;
20966;SDS011;10642;50.682;18.510;2022-08-07T00:50:56;7.70;;;4.57;;
20966;SDS011;10642;50.682;18.510;2022-08-07T00:53:25;8.30;;;4.43;;
20966;SDS011;10642;50.682;18.510;2022-08-07T00:56:04;5.57;;;4.07;;
20966;SDS011;10642;50.682;18.510;2022-08-07T00:58:40;6.60;;;4.23;;
20966;SDS011;10642;50.682;18.510;2022-08-07T01:01:12;7.13;;;4.60;;
20966;SDS011;10642;50.682;18.510;2022-08-07T01:03:39;10.17;;;4.40;;
20966;SDS011;10642;50.682;18.510;2022-08-07T01:06:26;6.10;;;4.10;;
20966;SDS011;10642;50.682;18.510;2022-08-07T01:08:54;7.50;;;3.90;;
20966;SDS011;10642;50.682;18.510;2022-08-07T01:11:25;10.63;;;4.47;;
20966;SDS011;10642;50.682;18.510;2022-08-07T01:14:12;9.03;;;4.53;;
20966;SDS011;10642;50.682;18.510;2022-08-07T01:16:42;7.00;;;3.73;;
20966;SDS011;10642;50.682;18.510;2022-08-07T01:19:15;8.87;;;4.63;;
20966;SDS011;10642;50.682;18.510;2022-08-07T01:21:48;10.57;;;5.23;;
20966;SDS011;10642;50.682;18.510;2022-08-07T01:24:23;7.70;;;4.63;;
20966;SDS011;10642;50.682;18.510;2022-08-07T01:26:51;9.77;;;5.00;;
20966;SDS011;10642;50.682;18.510;2022-08-07T01:29:21;7.97;;;4.57;;
20966;SDS011;10642;50.682;18.510;2022-08-07T01:31:54;7.53;;;4.43;;
20966;SDS011;10642;50.682;18.510;2022-08-07T01:34:30;7.23;;;4.83;;
20966;SDS011;10642;50.682;18.510;2022-08-07T01:37:07;7.77;;;4.83;;
20966;SDS011;10642;50.682;18.510;2022-08-07T01:39:38;8.70;;;5.00;;
20966;SDS011;10642;50.682;18.510;2022-08-07T01:42:38;6.40;;;4.27;;
20966;SDS011;10642;50.682;18.510;2022-08-07T01:45:24;5.53;;;4.07;;
20966;SDS011;10642;50.682;18.510;2022-08-07T01:48:09;10.53;;;4.13;;
20966;SDS011;10642;50.682;18.510;2022-08-07T01:51:03;7.03;;;4.23;;
20966;SDS011;10642;50.682;18.510;2022-08-07T01:53:52;5.30;;;3.50;;
20966;SDS011;10642;50.682;18.510;2022-08-07T01:56:50;7.40;;;3.73;;
20966;SDS011;10642;50.682;18.510;2022-08-07T02:01:51;6.73;;;3.70;;
20966;SDS011;10642;50.682;18.510;2022-08-07T02:04:39;6.60;;;3.57;;
20966;SDS011;10642;50.682;18.510;2022-08-07T02:07:25;10.07;;;3.50;;
20966;SDS011;10642;50.682;18.510;2022-08-07T02:10:15;8.80;;;3.20;;
20966;SDS011;10642;50.682;18.510;2022-08-07T02:12:44;6.33;;;3.43;;
20966;SDS011;10642;50.682;18.510;2022-08-07T02:15:22;6.10;;;3.27;;
20966;SDS011;10642;50.682;18.510;2022-08-07T02:17:54;7.37;;;3.43;;
20966;SDS011;10642;50.682;18.510;2022-08-07T02:20:22;4.90;;;3.27;;
20966;SDS011;10642;50.682;18.510;2022-08-07T02:22:58;4.83;;;3.03;;
20966;SDS011;10642;50.682;18.510;2022-08-07T02:25:28;7.37;;;3.40;;
20966;SDS011;10642;50.682;18.510;2022-08-07T02:28:16;3.93;;;2.73;;
20966;SDS011;10642;50.682;18.510;2022-08-07T02:30:55;4.33;;;3.00;;
20966;SDS011;10642;50.682;18.510;2022-08-07T02:33:25;5.90;;;2.67;;
20966;SDS011;10642;50.682;18.510;2022-08-07T02:36:14;5.30;;;3.00;;
20966;SDS011;10642;50.682;18.510;2022-08-07T02:39:03;4.40;;;2.90;;
20966;SDS011;10642;50.682;18.510;2022-08-07T02:41:43;5.40;;;2.67;;
20966;SDS011;10642;50.682;18.510;2022-08-07T02:44:22;4.93;;;3.20;;
20966;SDS011;10642;50.682;18.510;2022-08-07T02:47:02;8.73;;;3.00;;
20966;SDS011;10642;50.682;18.510;2022-08-07T02:49:32;4.07;;;2.80;;
20966;SDS011;10642;50.682;18.510;2022-08-07T02:52:23;6.07;;;2.93;;
20966;SDS011;10642;50.682;18.510;2022-08-07T02:54:59;5.50;;;2.90;;
20966;SDS011;10642;50.682;18.510;2022-08-07T02:57:30;4.07;;;2.47;;
20966;SDS011;10642;50.682;18.510;2022-08-07T03:00:02;4.67;;;2.60;;
20966;SDS011;10642;50.682;18.510;2022-08-07T03:02:36;4.93;;;2.70;;
20966;SDS011;10642;50.682;18.510;2022-08-07T03:05:20;7.77;;;2.77;;
20966;SDS011;10642;50.682;18.510;2022-08-07T03:07:51;3.90;;;2.20;;
20966;SDS011;10642;50.682;18.510;2022-08-07T03:10:37;4.47;;;2.50;;
20966;SDS011;10642;50.682;18.510;2022-08-07T03:13:17;3.67;;;2.23;;
20966;SDS011;10642;50.682;18.510;2022-08-07T03:15:47;4.67;;;2.37;;
20966;SDS011;10642;50.682;18.510;2022-08-07T03:18:25;4.80;;;2.37;;
20966;SDS011;10642;50.682;18.510;2022-08-07T03:21:04;5.30;;;2.43;;
20966;SDS011;10642;50.682;18.510;2022-08-07T03:23:36;3.33;;;2.30;;
20966;SDS011;10642;50.682;18.510;2022-08-07T03:26:25;2.57;;;1.87;;
20966;SDS011;10642;50.682;18.510;2022-08-07T03:28:54;2.90;;;2.00;;
20966;SDS011;10642;50.682;18.510;2022-08-07T03:31:23;4.17;;;2.50;;
20966;SDS011;10642;50.682;18.510;2022-08-07T03:34:13;4.37;;;2.30;;
20966;SDS011;10642;50.682;18.510;2022-08-07T03:36:49;3.93;;;2.50;;
20966;SDS011;10642;50.682;18.510;2022-08-07T03:39:16;3.00;;;2.10;;
20966;SDS011;10642;50.682;18.510;2022-08-07T03:42:06;7.57;;;2.60;;
20966;SDS011;10642;50.682;18.510;2022-08-07T03:44:35;3.43;;;2.27;;
20966;SDS011;10642;50.682;18.510;2022-08-07T03:47:02;5.90;;;2.43;;
20966;SDS011;10642;50.682;18.510;2022-08-07T03:49:44;3.13;;;2.10;;
20966;SDS011;10642;50.682;18.510;2022-08-07T03:52:21;6.50;;;2.40;;
20966;SDS011;10642;50.682;18.510;2022-08-07T03:54:58;7.53;;;1.93;;
20966;SDS011;10642;50.682;18.510;2022-08-07T03:57:36;8.10;;;2.17;;
20966;SDS011;10642;50.682;18.510;2022-08-07T04:00:29;10.97;;;2.57;;
20966;SDS011;10642;50.682;18.510;2022-08-07T04:03:01;3.73;;;2.40;;
20966;SDS011;10642;50.682;18.510;2022-08-07T04:05:34;6.73;;;2.10;;
20966;SDS011;10642;50.682;18.510;2022-08-07T04:08:21;8.30;;;2.10;;
20966;SDS011;10642;50.682;18.510;2022-08-07T04:10:49;3.60;;;2.00;;
20966;SDS011;10642;50.682;18.510;2022-08-07T04:13:40;5.23;;;2.27;;
20966;SDS011;10642;50.682;18.510;2022-08-07T04:16:27;3.13;;;2.00;;
20966;SDS011;10642;50.682;18.510;2022-08-07T04:19:00;4.40;;;2.10;;
20966;SDS011;10642;50.682;18.510;2022-08-07T04:21:46;2.50;;;1.80;;
20966;SDS011;10642;50.682;18.510;2022-08-07T04:24:35;3.57;;;2.10;;
20966;SDS011;10642;50.682;18.510;2022-08-07T04:27:09;5.03;;;1.90;;
20966;SDS011;10642;50.682;18.510;2022-08-07T04:29:54;4.57;;;2.40;;
20966;SDS011;10642;50.682;18.510;2022-08-07T04:32:53;8.80;;;1.97;;
20966;SDS011;10642;50.682;18.510;2022-08-07T04:35:27;5.93;;;2.40;;
20966;SDS011;10642;50.682;18.510;2022-08-07T04:38:07;5.00;;;1.87;;
20966;SDS011;10642;50.682;18.510;2022-08-07T04:40:43;5.80;;;2.30;;
20966;SDS011;10642;50.682;18.510;2022-08-07T04:43:32;3.10;;;1.73;;
20966;SDS011;10642;50.682;18.510;2022-08-07T04:52:09;5.73;;;1.93;;
20966;SDS011;10642;50.682;18.510;2022-08-07T05:00:02;5.80;;;2.20;;
20966;SDS011;10642;50.682;18.510;2022-08-07T05:02:46;4.60;;;2.17;;
20966;SDS011;10642;50.682;18.510;2022-08-07T05:05:23;3.10;;;2.00;;
20966;SDS011;10642;50.682;18.510;2022-08-07T05:08:17;3.10;;;2.13;;
20966;SDS011;10642;50.682;18.510;2022-08-07T05:11:19;3.83;;;2.30;;
20966;SDS011;10642;50.682;18.510;2022-08-07T05:14:06;5.83;;;2.27;;
20966;SDS011;10642;50.682;18.510;2022-08-07T05:16:56;4.07;;;2.10;;
20966;SDS011;10642;50.682;18.510;2022-08-07T05:19:26;3.73;;;2.43;;
20966;SDS011;10642;50.682;18.510;2022-08-07T05:22:11;3.80;;;2.47;;
20966;SDS011;10642;50.682;18.510;2022-08-07T05:24:52;4.00;;;2.33;;
20966;SDS011;10642;50.682;18.510;2022-08-07T05:27:21;6.73;;;2.30;;
20966;SDS011;10642;50.682;18.510;2022-08-07T05:30:10;5.83;;;3.23;;
20966;SDS011;10642;50.682;18.510;2022-08-07T05:32:38;5.53;;;2.90;;
20966;SDS011;10642;50.682;18.510;2022-08-07T05:35:08;3.20;;;2.30;;
20966;SDS011;10642;50.682;18.510;2022-08-07T05:37:38;7.53;;;2.67;;
20966;SDS011;10642;50.682;18.510;2022-08-07T05:40:08;3.60;;;2.53;;
20966;SDS011;10642;50.682;18.510;2022-08-07T05:42:46;6.97;;;2.90;;
20966;SDS011;10642;50.682;18.510;2022-08-07T05:45:24;6.97;;;2.70;;
20966;SDS011;10642;50.682;18.510;2022-08-07T05:48:11;5.90;;;2.50;;
20966;SDS011;10642;50.682;18.510;2022-08-07T05:50:43;6.00;;;3.37;;
20966;SDS011;10642;50.682;18.510;2022-08-07T05:53:15;5.97;;;3.23;;
20966;SDS011;10642;50.682;18.510;2022-08-07T05:56:03;4.40;;;3.23;;
20966;SDS011;10642;50.682;18.510;2022-08-07T05:58:38;6.07;;;2.93;;
20966;SDS011;10642;50.682;18.510;2022-08-07T06:01:15;8.63;;;3.40;;
20966;SDS011;10642;50.682;18.510;2022-08-07T06:03:47;5.30;;;2.73;;
20966;SDS011;10642;50.682;18.510;2022-08-07T06:06:26;6.17;;;3.23;;
20966;SDS011;10642;50.682;18.510;2022-08-07T06:08:58;5.87;;;3.27;;
20966;SDS011;10642;50.682;18.510;2022-08-07T06:11:33;11.17;;;3.93;;
20966;SDS011;10642;50.682;18.510;2022-08-07T06:14:01;5.53;;;3.60;;
20966;SDS011;10642;50.682;18.510;2022-08-07T06:16:47;7.30;;;3.67;;
20966;SDS011;10642;50.682;18.510;2022-08-07T06:19:27;5.57;;;3.23;;
20966;SDS011;10642;50.682;18.510;2022-08-07T06:22:16;6.40;;;3.60;;
20966;SDS011;10642;50.682;18.510;2022-08-07T06:25:00;8.10;;;3.60;;
20966;SDS011;10642;50.682;18.510;2022-08-07T06:27:29;9.20;;;3.47;;
20966;SDS011;10642;50.682;18.510;2022-08-07T06:30:16;9.80;;;3.53;;
20966;SDS011;10642;50.682;18.510;2022-08-07T06:33:01;7.07;;;3.60;;
20966;SDS011;10642;50.682;18.510;2022-08-07T06:35:30;6.90;;;3.40;;
20966;SDS011;10642;50.682;18.510;2022-08-07T06:38:12;6.53;;;3.80;;
20966;SDS011;10642;50.682;18.510;2022-08-07T06:40:50;6.47;;;3.77;;
20966;SDS011;10642;50.682;18.510;2022-08-07T06:43:20;9.97;;;3.53;;
20966;SDS011;10642;50.682;18.510;2022-08-07T06:46:11;5.37;;;3.27;;
20966;SDS011;10642;50.682;18.510;2022-08-07T06:48:39;9.97;;;5.53;;
20966;SDS011;10642;50.682;18.510;2022-08-07T06:51:13;4.97;;;3.27;;
20966;SDS011;10642;50.682;18.510;2022-08-07T06:53:57;5.53;;;3.47;;
20966;SDS011;10642;50.682;18.510;2022-08-07T06:56:48;3.80;;;2.40;;
20966;SDS011;10642;50.682;18.510;2022-08-07T06:59:46;8.10;;;3.03;;
20966;SDS011;10642;50.682;18.510;2022-08-07T07:02:32;5.10;;;2.80;;
20966;SDS011;10642;50.682;18.510;2022-08-07T07:05:20;9.00;;;2.70;;
20966;SDS011;10642;50.682;18.510;2022-08-07T07:08:07;3.97;;;2.10;;
20966;SDS011;10642;50.682;18.510;2022-08-07T07:10:44;3.27;;;2.10;;
20966;SDS011;10642;50.682;18.510;2022-08-07T07:13:33;3.23;;;1.77;;
20966;SDS011;10642;50.682;18.510;2022-08-07T07:16:22;7.90;;;1.80;;
20966;SDS011;10642;50.682;18.510;2022-08-07T07:19:00;2.27;;;1.63;;
20966;SDS011;10642;50.682;18.510;2022-08-07T07:21:49;3.17;;;1.63;;
20966;SDS011;10642;50.682;18.510;2022-08-07T07:24:38;3.47;;;1.80;;
20966;SDS011;10642;50.682;18.510;2022-08-07T07:27:09;2.73;;;1.70;;
20966;SDS011;10642;50.682;18.510;2022-08-07T07:29:38;6.70;;;1.60;;
20966;SDS011;10642;50.682;18.510;2022-08-07T07:32:26;5.53;;;1.63;;
20966;SDS011;10642;50.682;18.510;2022-08-07T07:34:56;4.23;;;1.40;;
20966;SDS011;10642;50.682;18.510;2022-08-07T07:37:25;2.60;;;1.40;;
20966;SDS011;10642;50.682;18.510;2022-08-07T07:40:14;3.23;;;1.27;;
20966;SDS011;10642;50.682;18.510;2022-08-07T07:42:42;2.47;;;1.40;;
20966;SDS011;10642;50.682;18.510;2022-08-07T07:45:17;6.37;;;1.57;;
20966;SDS011;10642;50.682;18.510;2022-08-07T07:47:48;2.60;;;1.17;;
20966;SDS011;10642;50.682;18.510;2022-08-07T07:50:22;3.10;;;1.30;;
20966;SDS011;10642;50.682;18.510;2022-08-07T07:53:04;5.77;;;1.50;;
20966;SDS011;10642;50.682;18.510;2022-08-07T07:55:45;1.97;;;1.30;;
20966;SDS011;10642;50.682;18.510;2022-08-07T07:58:24;2.43;;;1.43;;
20966;SDS011;10642;50.682;18.510;2022-08-07T08:00:54;2.67;;;1.20;;
20966;SDS011;10642;50.682;18.510;2022-08-07T08:03:23;2.27;;;1.50;;
20966;SDS011;10642;50.682;18.510;2022-08-07T08:06:11;5.13;;;1.57;;
20966;SDS011;10642;50.682;18.510;2022-08-07T08:08:38;2.27;;;1.57;;
20966;SDS011;10642;50.682;18.510;2022-08-07T08:11:08;2.93;;;1.40;;
20966;SDS011;10642;50.682;18.510;2022-08-07T08:13:44;5.33;;;1.40;;
20966;SDS011;10642;50.682;18.510;2022-08-07T08:16:34;6.40;;;1.57;;
20966;SDS011;10642;50.682;18.510;2022-08-07T08:19:08;3.17;;;1.83;;
20966;SDS011;10642;50.682;18.510;2022-08-07T08:21:56;5.83;;;1.50;;
20966;SDS011;10642;50.682;18.510;2022-08-07T08:24:42;3.37;;;1.43;;
20966;SDS011;10642;50.682;18.510;2022-08-07T08:27:49;5.27;;;1.30;;
20966;SDS011;10642;50.682;18.510;2022-08-07T08:30:28;2.33;;;1.33;;
20966;SDS011;10642;50.682;18.510;2022-08-07T08:33:15;4.77;;;1.50;;
20966;SDS011;10642;50.682;18.510;2022-08-07T08:35:48;4.17;;;1.20;;
20966;SDS011;10642;50.682;18.510;2022-08-07T08:38:17;4.20;;;1.30;;
20966;SDS011;10642;50.682;18.510;2022-08-07T08:40:47;2.37;;;1.60;;
20966;SDS011;10642;50.682;18.510;2022-08-07T08:43:30;1.70;;;1.23;;
20966;SDS011;10642;50.682;18.510;2022-08-07T08:52:30;7.00;;;1.67;;
20966;SDS011;10642;50.682;18.510;2022-08-07T08:55:05;1.13;;;0.80;;
20966;SDS011;10642;50.682;18.510;2022-08-07T09:00:44;3.57;;;1.00;;
20966;SDS011;10642;50.682;18.510;2022-08-07T09:03:23;2.80;;;0.93;;
20966;SDS011;10642;50.682;18.510;2022-08-07T09:06:16;2.27;;;0.67;;
20966;SDS011;10642;50.682;18.510;2022-08-07T09:11:18;2.10;;;1.10;;
20966;SDS011;10642;50.682;18.510;2022-08-07T09:14:14;3.63;;;1.00;;
20966;SDS011;10642;50.682;18.510;2022-08-07T09:17:01;3.13;;;1.17;;
20966;SDS011;10642;50.682;18.510;2022-08-07T09:25:21;4.23;;;0.87;;
20966;SDS011;10642;50.682;18.510;2022-08-07T09:27:51;1.73;;;0.90;;
20966;SDS011;10642;50.682;18.510;2022-08-07T09:30:30;2.13;;;0.67;;
20966;SDS011;10642;50.682;18.510;2022-08-07T09:35:46;2.10;;;0.80;;
20966;SDS011;10642;50.682;18.510;2022-08-07T09:55:14;2.23;;;1.00;;
20966;SDS011;10642;50.682;18.510;2022-08-07T10:00:49;2.37;;;1.30;;
20966;SDS011;10642;50.682;18.510;2022-08-07T10:08:52;2.70;;;1.10;;
20966;SDS011;10642;50.682;18.510;2022-08-07T10:15:00;3.07;;;1.17;;
20966;SDS011;10642;50.682;18.510;2022-08-07T10:26:12;2.73;;;1.10;;
20966;SDS011;10642;50.682;18.510;2022-08-07T10:34:16;1.97;;;1.20;;
20966;SDS011;10642;50.682;18.510;2022-08-07T10:37:01;2.40;;;1.40;;
20966;SDS011;10642;50.682;18.510;2022-08-07T10:45:20;2.57;;;1.33;;
20966;SDS011;10642;50.682;18.510;2022-08-07T10:53:40;2.23;;;1.20;;
20966;SDS011;10642;50.682;18.510;2022-08-07T10:59:08;1.80;;;1.40;;
20966;SDS011;10642;50.682;18.510;2022-08-07T11:01:46;1.80;;;1.00;;
20966;SDS011;10642;50.682;18.510;2022-08-07T11:10:11;5.50;;;1.37;;
20966;SDS011;10642;50.682;18.510;2022-08-07T11:12:48;2.33;;;1.30;;
20966;SDS011;10642;50.682;18.510;2022-08-07T11:15:29;2.97;;;1.50;;
20966;SDS011;10642;50.682;18.510;2022-08-07T11:20:39;3.73;;;1.40;;
20966;SDS011;10642;50.682;18.510;2022-08-07T11:23:43;2.77;;;1.33;;
20966;SDS011;10642;50.682;18.510;2022-08-07T11:26:14;3.97;;;1.63;;
20966;SDS011;10642;50.682;18.510;2022-08-07T11:28:48;2.80;;;1.27;;
20966;SDS011;10642;50.682;18.510;2022-08-07T11:31:36;2.10;;;1.43;;
20966;SDS011;10642;50.682;18.510;2022-08-07T11:35:07;2.30;;;1.40;;
20966;SDS011;10642;50.682;18.510;2022-08-07T11:44:58;2.90;;;1.67;;
20966;SDS011;10642;50.682;18.510;2022-08-07T11:55:40;3.10;;;1.80;;
20966;SDS011;10642;50.682;18.510;2022-08-07T11:58:47;3.20;;;1.73;;
20966;SDS011;10642;50.682;18.510;2022-08-07T12:01:30;4.20;;;2.00;;
20966;SDS011;10642;50.682;18.510;2022-08-07T12:07:00;2.20;;;1.70;;
20966;SDS011;10642;50.682;18.510;2022-08-07T12:10:05;5.23;;;1.80;;
20966;SDS011;10642;50.682;18.510;2022-08-07T12:12:52;1.93;;;1.33;;
20966;SDS011;10642;50.682;18.510;2022-08-07T12:15:22;4.13;;;1.60;;
20966;SDS011;10642;50.682;18.510;2022-08-07T12:21:19;2.67;;;1.67;;
20966;SDS011;10642;50.682;18.510;2022-08-07T12:24:16;1.90;;;1.60;;
20966;SDS011;10642;50.682;18.510;2022-08-07T12:27:11;2.50;;;1.50;;
20966;SDS011;10642;50.682;18.510;2022-08-07T12:29:50;2.80;;;1.80;;
20966;SDS011;10642;50.682;18.510;2022-08-07T12:35:16;2.23;;;1.50;;
20966;SDS011;10642;50.682;18.510;2022-08-07T12:37:48;2.70;;;1.73;;
20966;SDS011;10642;50.682;18.510;2022-08-07T12:40:36;4.10;;;1.87;;
20966;SDS011;10642;50.682;18.510;2022-08-07T12:43:17;6.93;;;1.87;;
20966;SDS011;10642;50.682;18.510;2022-08-07T12:49:07;2.60;;;1.87;;
20966;SDS011;10642;50.682;18.510;2022-08-07T12:51:59;5.20;;;1.70;;
20966;SDS011;10642;50.682;18.510;2022-08-07T12:54:50;3.40;;;1.80;;
20966;SDS011;10642;50.682;18.510;2022-08-07T12:57:23;2.70;;;1.93;;
20966;SDS011;10642;50.682;18.510;2022-08-07T12:59:55;5.17;;;2.00;;
20966;SDS011;10642;50.682;18.510;2022-08-07T13:02:31;3.37;;;2.13;;
20966;SDS011;10642;50.682;18.510;2022-08-07T13:05:05;3.60;;;1.80;;
20966;SDS011;10642;50.682;18.510;2022-08-07T13:13:30;3.10;;;2.13;;
20966;SDS011;10642;50.682;18.510;2022-08-07T13:19:25;3.70;;;2.57;;
20966;SDS011;10642;50.682;18.510;2022-08-07T13:22:25;4.27;;;2.30;;
20966;SDS011;10642;50.682;18.510;2022-08-07T13:24:59;3.60;;;2.50;;
20966;SDS011;10642;50.682;18.510;2022-08-07T13:27:38;3.10;;;2.20;;
20966;SDS011;10642;50.682;18.510;2022-08-07T13:30:27;2.63;;;2.37;;
20966;SDS011;10642;50.682;18.510;2022-08-07T13:33:08;3.30;;;2.50;;
20966;SDS011;10642;50.682;18.510;2022-08-07T13:36:03;3.13;;;2.17;;
20966;SDS011;10642;50.682;18.510;2022-08-07T13:41:29;2.37;;;2.00;;
20966;SDS011;10642;50.682;18.510;2022-08-07T13:44:07;3.83;;;1.97;;
20966;SDS011;10642;50.682;18.510;2022-08-07T13:46:37;3.40;;;2.17;;
20966;SDS011;10642;50.682;18.510;2022-08-07T13:49:19;5.67;;;2.47;;
20966;SDS011;10642;50.682;18.510;2022-08-07T13:52:07;4.07;;;2.27;;
20966;SDS011;10642;50.682;18.510;2022-08-07T13:54:55;2.80;;;2.40;;
20966;SDS011;10642;50.682;18.510;2022-08-07T13:57:26;6.07;;;2.83;;
20966;SDS011;10642;50.682;18.510;2022-08-07T14:00:04;3.77;;;2.10;;
20966;SDS011;10642;50.682;18.510;2022-08-07T14:02:37;4.97;;;2.30;;
20966;SDS011;10642;50.682;18.510;2022-08-07T14:05:20;4.00;;;2.10;;
20966;SDS011;10642;50.682;18.510;2022-08-07T14:07:48;2.90;;;1.93;;
20966;SDS011;10642;50.682;18.510;2022-08-07T14:10:32;2.70;;;2.10;;
20966;SDS011;10642;50.682;18.510;2022-08-07T14:13:07;2.33;;;2.07;;
20966;SDS011;10642;50.682;18.510;2022-08-07T14:15:38;6.10;;;2.70;;
20966;SDS011;10642;50.682;18.510;2022-08-07T14:18:17;3.37;;;2.50;;
20966;SDS011;10642;50.682;18.510;2022-08-07T14:21:18;3.83;;;2.13;;
20966;SDS011;10642;50.682;18.510;2022-08-07T14:24:03;4.87;;;2.20;;
20966;SDS011;10642;50.682;18.510;2022-08-07T14:26:39;4.50;;;2.57;;
20966;SDS011;10642;50.682;18.510;2022-08-07T14:29:20;7.50;;;2.43;;
20966;SDS011;10642;50.682;18.510;2022-08-07T14:32:10;2.37;;;1.90;;
20966;SDS011;10642;50.682;18.510;2022-08-07T14:34:40;6.53;;;2.23;;
20966;SDS011;10642;50.682;18.510;2022-08-07T14:37:12;3.37;;;2.10;;
20966;SDS011;10642;50.682;18.510;2022-08-07T14:39:42;6.57;;;2.83;;
20966;SDS011;10642;50.682;18.510;2022-08-07T14:42:30;2.47;;;2.07;;
20966;SDS011;10642;50.682;18.510;2022-08-07T14:45:00;2.50;;;2.10;;
20966;SDS011;10642;50.682;18.510;2022-08-07T14:47:47;4.20;;;2.40;;
20966;SDS011;10642;50.682;18.510;2022-08-07T14:50:16;3.83;;;2.33;;
20966;SDS011;10642;50.682;18.510;2022-08-07T14:52:50;5.33;;;2.40;;
20966;SDS011;10642;50.682;18.510;2022-08-07T14:55:17;2.90;;;2.07;;
20966;SDS011;10642;50.682;18.510;2022-08-07T14:57:48;5.33;;;2.50;;
20966;SDS011;10642;50.682;18.510;2022-08-07T15:00:31;2.80;;;2.40;;
20966;SDS011;10642;50.682;18.510;2022-08-07T15:03:04;3.33;;;2.57;;
20966;SDS011;10642;50.682;18.510;2022-08-07T15:05:45;2.50;;;2.07;;
20966;SDS011;10642;50.682;18.510;2022-08-07T15:08:22;4.43;;;1.97;;
20966;SDS011;10642;50.682;18.510;2022-08-07T15:11:17;2.17;;;1.97;;
20966;SDS011;10642;50.682;18.510;2022-08-07T15:14:06;4.83;;;2.30;;
20966;SDS011;10642;50.682;18.510;2022-08-07T15:19:04;5.20;;;2.40;;
20966;SDS011;10642;50.682;18.510;2022-08-07T15:21:53;4.27;;;2.40;;
20966;SDS011;10642;50.682;18.510;2022-08-07T15:24:31;4.33;;;2.07;;
20966;SDS011;10642;50.682;18.510;2022-08-07T15:27:21;3.30;;;2.00;;
20966;SDS011;10642;50.682;18.510;2022-08-07T15:29:51;3.27;;;1.73;;
20966;SDS011;10642;50.682;18.510;2022-08-07T15:32:43;3.93;;;2.20;;
20966;SDS011;10642;50.682;18.510;2022-08-07T15:35:33;2.97;;;2.00;;
20966;SDS011;10642;50.682;18.510;2022-08-07T15:38:23;5.50;;;2.20;;
20966;SDS011;10642;50.682;18.510;2022-08-07T15:41:16;4.43;;;2.13;;
20966;SDS011;10642;50.682;18.510;2022-08-07T15:43:57;4.30;;;2.00;;
20966;SDS011;10642;50.682;18.510;2022-08-07T15:46:25;2.87;;;1.90;;
20966;SDS011;10642;50.682;18.510;2022-08-07T15:49:05;2.43;;;1.93;;
20966;SDS011;10642;50.682;18.510;2022-08-07T15:51:41;3.33;;;2.00;;
20966;SDS011;10642;50.682;18.510;2022-08-07T15:54:30;3.37;;;2.47;;
20966;SDS011;10642;50.682;18.510;2022-08-07T15:57:00;2.50;;;2.20;;
20966;SDS011;10642;50.682;18.510;2022-08-07T15:59:30;2.40;;;1.70;;
20966;SDS011;10642;50.682;18.510;2022-08-07T16:02:10;3.03;;;1.87;;
20966;SDS011;10642;50.682;18.510;2022-08-07T16:04:41;3.13;;;1.90;;
20966;SDS011;10642;50.682;18.510;2022-08-07T16:07:09;2.53;;;1.80;;
20966;SDS011;10642;50.682;18.510;2022-08-07T16:10:04;2.43;;;1.70;;
20966;SDS011;10642;50.682;18.510;2022-08-07T16:12:51;4.20;;;2.10;;
20966;SDS011;10642;50.682;18.510;2022-08-07T16:24:26;3.30;;;1.73;;
20966;SDS011;10642;50.682;18.510;2022-08-07T16:27:21;4.73;;;1.77;;
20966;SDS011;10642;50.682;18.510;2022-08-07T16:30:09;2.50;;;1.90;;
20966;SDS011;10642;50.682;18.510;2022-08-07T16:33:08;2.63;;;1.97;;
20966;SDS011;10642;50.682;18.510;2022-08-07T16:38:37;3.13;;;1.90;;
20966;SDS011;10642;50.682;18.510;2022-08-07T16:41:36;2.40;;;2.10;;
20966;SDS011;10642;50.682;18.510;2022-08-07T16:44:10;2.27;;;2.07;;
20966;SDS011;10642;50.682;18.510;2022-08-07T16:56:19;4.10;;;1.67;;
20966;SDS011;10642;50.682;18.510;2022-08-07T16:58:52;2.80;;;2.07;;
20966;SDS011;10642;50.682;18.510;2022-08-07T17:04:32;1.97;;;1.73;;
20966;SDS011;10642;50.682;18.510;2022-08-07T17:07:17;2.13;;;1.70;;
20966;SDS011;10642;50.682;18.510;2022-08-07T17:10:31;2.33;;;2.10;;
20966;SDS011;10642;50.682;18.510;2022-08-07T17:16:02;2.87;;;2.27;;
20966;SDS011;10642;50.682;18.510;2022-08-07T17:18:36;4.07;;;2.20;;
20966;SDS011;10642;50.682;18.510;2022-08-07T17:21:17;3.43;;;2.30;;
20966;SDS011;10642;50.682;18.510;2022-08-07T17:29:17;2.43;;;2.10;;
20966;SDS011;10642;50.682;18.510;2022-08-07T17:35:20;3.87;;;2.03;;
20966;SDS011;10642;50.682;18.510;2022-08-07T17:43:55;5.30;;;2.70;;
20966;SDS011;10642;50.682;18.510;2022-08-07T17:46:49;2.90;;;2.60;;
20966;SDS011;10642;50.682;18.510;2022-08-07T17:49:23;4.00;;;2.60;;
20966;SDS011;10642;50.682;18.510;2022-08-07T17:52:05;3.70;;;2.10;;
20966;SDS011;10642;50.682;18.510;2022-08-07T17:54:44;4.33;;;2.20;;
20966;SDS011;10642;50.682;18.510;2022-08-07T18:00:27;2.53;;;2.30;;
20966;SDS011;10642;50.682;18.510;2022-08-07T18:03:17;3.00;;;2.37;;
20966;SDS011;10642;50.682;18.510;2022-08-07T18:05:59;4.33;;;2.40;;
20966;SDS011;10642;50.682;18.510;2022-08-07T18:08:41;2.80;;;2.23;;
20966;SDS011;10642;50.682;18.510;2022-08-07T18:11:29;2.83;;;2.20;;
20966;SDS011;10642;50.682;18.510;2022-08-07T18:14:37;3.97;;;2.37;;
20966;SDS011;10642;50.682;18.510;2022-08-07T18:20:22;4.40;;;2.33;;
20966;SDS011;10642;50.682;18.510;2022-08-07T18:23:10;2.73;;;2.30;;
20966;SDS011;10642;50.682;18.510;2022-08-07T18:26:02;2.97;;;2.33;;
20966;SDS011;10642;50.682;18.510;2022-08-07T18:28:54;3.07;;;1.97;;
20966;SDS011;10642;50.682;18.510;2022-08-07T18:42:48;7.73;;;1.90;;
20966;SDS011;10642;50.682;18.510;2022-08-07T18:45:22;2.20;;;1.60;;
20966;SDS011;10642;50.682;18.510;2022-08-07T18:48:57;2.93;;;1.70;;
20966;SDS011;10642;50.682;18.510;2022-08-07T18:51:28;2.80;;;1.60;;
20966;SDS011;10642;50.682;18.510;2022-08-07T18:54:24;2.40;;;1.70;;
20966;SDS011;10642;50.682;18.510;2022-08-07T19:00:05;14.03;;;7.77;;
20966;SDS011;10642;50.682;18.510;2022-08-07T19:03:06;5.33;;;3.37;;
20966;SDS011;10642;50.682;18.510;2022-08-07T19:05:50;5.03;;;2.40;;
20966;SDS011;10642;50.682;18.510;2022-08-07T19:08:33;3.27;;;2.00;;
20966;SDS011;10642;50.682;18.510;2022-08-07T19:11:15;6.43;;;1.93;;
20966;SDS011;10642;50.682;18.510;2022-08-07T19:22:19;2.00;;;1.50;;